createdAt,value
2022-07-28T00:00:49.961Z,2.2
2022-07-28T00:02:50.102Z,2.2
2022-07-28T00:04:49.758Z,2.3
2022-07-28T00:06:49.958Z,2.3
2022-07-28T00:08:49.909Z,2.1
2022-07-28T00:10:49.762Z,2.1
2022-07-28T00:12:49.775Z,2.4
2022-07-28T00:14:49.785Z,2.1
2022-07-28T00:16:50.317Z,2.3
2022-07-28T00:18:50.470Z,2.1
2022-07-28T00:20:50.416Z,2.1
2022-07-28T00:22:50.435Z,2.3
2022-07-28T00:24:50.893Z,2.1
2022-07-28T00:26:49.974Z,2.1
2022-07-28T00:28:50.159Z,2.2
2022-07-28T00:30:50.082Z,2.2
2022-07-28T00:32:50.540Z,2.2
2022-07-28T00:34:53.837Z,2.1
2022-07-28T00:36:50.106Z,2.2
2022-07-28T00:38:51.510Z,2.2
2022-07-28T00:40:50.213Z,2.2
2022-07-28T00:42:49.782Z,2.5
2022-07-28T00:44:50.112Z,2.2
2022-07-28T00:46:50.605Z,2.3
2022-07-28T00:48:50.160Z,2.3
2022-07-28T00:50:50.180Z,2.3
2022-07-28T00:52:50.024Z,2.2
2022-07-28T00:54:50.017Z,2.2
2022-07-28T00:56:50.303Z,2.3
2022-07-28T00:58:50.293Z,2.6
2022-07-28T01:00:50.189Z,2.6
2022-07-28T01:02:50.717Z,2.4
2022-07-28T01:04:50.625Z,2.3
2022-07-28T01:06:49.718Z,2.3
2022-07-28T01:08:50.612Z,2.4
2022-07-28T01:10:50.656Z,2.4
2022-07-28T01:12:49.745Z,2.4
2022-07-28T01:14:50.654Z,2.3
2022-07-28T01:16:49.804Z,2.2
2022-07-28T01:18:50.644Z,2.4
2022-07-28T01:20:50.650Z,2.4
2022-07-28T01:22:50.521Z,2.2
2022-07-28T01:24:50.428Z,2.3
2022-07-28T01:26:50.688Z,2.4
2022-07-28T01:28:50.545Z,2.3
2022-07-28T01:30:50.566Z,2.3
2022-07-28T01:32:49.778Z,2.3
2022-07-28T01:34:50.069Z,2.6
2022-07-28T01:36:50.150Z,2.3
2022-07-28T01:38:50.016Z,2.3
2022-07-28T01:40:50.636Z,2.5
2022-07-28T01:42:50.563Z,2.7
2022-07-28T01:44:49.786Z,2.3
2022-07-28T01:46:50.172Z,2.4
2022-07-28T01:48:50.707Z,2.4
2022-07-28T01:50:50.090Z,2.2
2022-07-28T01:52:50.236Z,2.4
2022-07-28T01:54:50.309Z,2.5
2022-07-28T01:56:50.497Z,2.2
2022-07-28T01:58:50.536Z,2.2
2022-07-28T02:00:50.534Z,2.2
2022-07-28T02:02:50.468Z,2.4
2022-07-28T02:04:49.943Z,2.4
2022-07-28T02:06:50.430Z,2.4
2022-07-28T02:08:49.966Z,2.3
2022-07-28T02:10:50.023Z,2.3
2022-07-28T02:12:50.192Z,2.4
2022-07-28T02:14:50.276Z,2.4
2022-07-28T02:16:50.624Z,2.2
2022-07-28T02:18:50.634Z,2.3
2022-07-28T02:20:50.595Z,2.3
2022-07-28T02:22:52.215Z,2.2
2022-07-28T02:24:50.082Z,2.5
2022-07-28T02:26:50.444Z,2.3
2022-07-28T02:28:50.412Z,2.3
2022-07-28T02:30:50.581Z,2.6
2022-07-28T02:32:49.976Z,2.6
2022-07-28T02:34:50.489Z,2.4
2022-07-28T02:36:49.980Z,2.4
2022-07-28T02:38:50.093Z,2.5
2022-07-28T02:40:49.965Z,2.2
2022-07-28T02:42:50.014Z,2.4
2022-07-28T02:44:49.852Z,2.4
2022-07-28T02:46:50.097Z,2.4
2022-07-28T02:48:50.233Z,2.6
2022-07-28T02:50:50.434Z,2.6
2022-07-28T02:52:50.305Z,2.7
2022-07-28T02:54:50.455Z,2.4
2022-07-28T02:56:54.061Z,2.4
2022-07-28T02:58:50.259Z,2.1
2022-07-28T03:00:50.373Z,2.2
2022-07-28T03:02:50.563Z,2.2
2022-07-28T03:04:50.348Z,2.2
2022-07-28T03:06:50.375Z,2.2
2022-07-28T03:08:50.392Z,2.3
2022-07-28T03:10:50.557Z,2.6
2022-07-28T03:12:49.803Z,2.2
2022-07-28T03:14:50.681Z,2.2
2022-07-28T03:16:55.829Z,2.6
2022-07-28T03:18:50.075Z,2.3
2022-07-28T03:20:50.133Z,2.7
2022-07-28T03:22:50.152Z,2.5
2022-07-28T03:24:50.184Z,2.5
2022-07-28T03:26:50.493Z,2.5
2022-07-28T03:28:50.421Z,2.5
2022-07-28T03:30:50.419Z,2.3
2022-07-28T03:32:49.675Z,2.6
2022-07-28T03:34:49.944Z,2.6
2022-07-28T03:36:50.050Z,2.4
2022-07-28T03:38:50.088Z,2.8
2022-07-28T03:40:50.111Z,2.6
2022-07-28T03:42:50.115Z,2.9
2022-07-28T03:44:50.182Z,2.9
2022-07-28T03:46:50.551Z,2.7
2022-07-28T03:48:50.732Z,3.2
2022-07-28T03:50:49.855Z,3.2
2022-07-28T03:52:50.121Z,2.5
2022-07-28T03:54:49.995Z,2.7
2022-07-28T03:56:50.491Z,2.7
2022-07-28T03:58:50.319Z,2.6
2022-07-28T04:00:50.603Z,2.7
2022-07-28T04:02:50.112Z,2.7
2022-07-28T04:04:50.062Z,2.9
2022-07-28T04:06:50.352Z,2.6
2022-07-28T04:08:50.321Z,2.6
2022-07-28T04:10:50.394Z,2.7
2022-07-28T04:12:50.491Z,3.2
2022-07-28T04:14:50.371Z,3.0
2022-07-28T04:16:50.712Z,3.0
2022-07-28T04:18:49.992Z,2.9
2022-07-28T04:20:49.802Z,2.9
2022-07-28T04:22:50.033Z,2.9
2022-07-28T04:24:50.014Z,2.9
2022-07-28T04:26:50.456Z,2.9
2022-07-28T04:28:50.237Z,2.4
2022-07-28T04:30:50.210Z,2.7
2022-07-28T04:32:50.674Z,2.7
2022-07-28T04:34:49.842Z,3.0
2022-07-28T04:36:50.091Z,3.1
2022-07-28T04:38:50.117Z,3.1
2022-07-28T04:40:50.317Z,3.2
2022-07-28T04:42:50.367Z,3.2
2022-07-28T04:44:50.455Z,3.0
2022-07-28T04:46:50.660Z,3.0
2022-07-28T04:48:49.813Z,3.2
2022-07-28T04:50:49.935Z,2.8
2022-07-28T04:52:49.991Z,2.8
2022-07-28T04:54:49.832Z,2.9
2022-07-28T04:56:50.172Z,3.1
2022-07-28T04:58:50.169Z,3.0
2022-07-28T05:00:50.908Z,3.2
2022-07-28T05:02:50.127Z,3.2
2022-07-28T05:04:50.678Z,2.9
2022-07-28T05:06:50.450Z,2.8
2022-07-28T05:08:50.434Z,2.7
2022-07-28T05:10:50.374Z,2.7
2022-07-28T05:12:50.288Z,2.8
2022-07-28T05:14:50.180Z,2.8
2022-07-28T05:16:50.547Z,2.8
2022-07-28T05:18:50.585Z,2.6
2022-07-28T05:20:50.278Z,2.6
2022-07-28T05:22:50.217Z,2.7
2022-07-28T05:24:51.152Z,2.8
2022-07-28T05:26:50.665Z,2.8
2022-07-28T05:28:49.678Z,2.8
2022-07-28T05:30:50.460Z,2.5
2022-07-28T05:32:49.695Z,2.3
2022-07-28T05:34:50.130Z,2.6
2022-07-28T05:36:50.197Z,2.4
2022-07-28T05:38:50.152Z,2.4
2022-07-28T05:40:50.017Z,2.1
2022-07-28T05:42:49.968Z,2.2
2022-07-28T05:44:49.911Z,2.2
2022-07-28T05:46:50.070Z,1.9
2022-07-28T05:48:50.183Z,1.9
2022-07-28T05:50:49.690Z,1.8
2022-07-28T05:52:50.561Z,2.1
2022-07-28T05:54:50.576Z,2.2
2022-07-28T05:56:50.594Z,2.1
2022-07-28T05:58:50.423Z,2.1
2022-07-28T06:00:50.465Z,2.0
2022-07-28T06:02:50.119Z,2.3
2022-07-28T06:04:50.382Z,2.3
2022-07-28T06:06:49.733Z,2.2
2022-07-28T06:08:49.881Z,2.2
2022-07-28T06:10:50.155Z,2.6
2022-07-28T06:12:50.048Z,2.3
2022-07-28T06:14:49.991Z,2.3
2022-07-28T06:16:50.917Z,2.3
2022-07-28T06:18:50.659Z,2.5
2022-07-28T06:20:50.672Z,2.1
2022-07-28T06:22:50.485Z,2.3
2022-07-28T06:24:50.485Z,2.2
2022-07-28T06:26:49.763Z,2.2
2022-07-28T06:28:49.857Z,2.2
2022-07-28T06:30:50.234Z,2.3
2022-07-28T06:32:50.386Z,2.4
2022-07-28T06:34:49.813Z,2.4
2022-07-28T06:36:50.168Z,2.1
2022-07-28T06:38:50.136Z,2.5
2022-07-28T06:40:49.949Z,2.3
2022-07-28T06:42:50.242Z,2.3
2022-07-28T06:44:59.780Z,2.2
2022-07-28T06:46:50.799Z,2.2
2022-07-28T06:48:49.987Z,2.4
2022-07-28T06:50:50.361Z,2.4
2022-07-28T06:52:50.419Z,2.3
2022-07-28T06:54:50.337Z,2.5
2022-07-28T06:56:49.987Z,2.5
2022-07-28T06:58:50.038Z,2.4
2022-07-28T07:00:50.220Z,2.3
2022-07-28T07:02:50.632Z,2.3
2022-07-28T07:04:49.858Z,2.6
2022-07-28T07:06:50.038Z,2.6
2022-07-28T07:08:49.886Z,2.4
2022-07-28T07:10:49.931Z,2.7
2022-07-28T07:12:49.811Z,2.7
2022-07-28T07:14:49.701Z,2.6
2022-07-28T07:16:50.136Z,2.5
2022-07-28T07:18:50.587Z,2.6
2022-07-28T07:20:50.625Z,2.6
2022-07-28T07:22:50.694Z,2.6
2022-07-28T07:24:57.031Z,2.6
2022-07-28T07:26:50.212Z,2.5
2022-07-28T07:28:50.177Z,2.9
2022-07-28T07:30:50.008Z,2.9
2022-07-28T07:32:50.152Z,2.5
2022-07-28T07:34:50.678Z,2.5
2022-07-28T07:36:50.155Z,2.5
2022-07-28T07:38:50.047Z,2.7
2022-07-28T07:40:50.054Z,2.5
2022-07-28T07:42:49.992Z,2.4
2022-07-28T07:44:50.672Z,2.4
2022-07-28T07:46:50.145Z,2.4
2022-07-28T07:48:50.684Z,2.5
2022-07-28T07:50:54.514Z,2.6
2022-07-28T07:52:50.676Z,2.6
2022-07-28T07:54:50.559Z,2.7
2022-07-28T07:56:49.755Z,2.4
2022-07-28T07:58:57.128Z,2.3
2022-07-28T08:00:50.396Z,2.4
2022-07-28T08:02:50.508Z,2.4
2022-07-28T08:04:50.061Z,2.5
2022-07-28T08:06:50.325Z,2.5
2022-07-28T08:08:50.400Z,2.4
2022-07-28T08:10:50.102Z,2.7
2022-07-28T08:12:50.072Z,2.7
2022-07-28T08:14:50.072Z,2.6
2022-07-28T08:16:49.979Z,2.3
2022-07-28T08:18:49.835Z,2.5
2022-07-28T08:20:49.798Z,2.3
2022-07-28T08:22:49.772Z,2.3
2022-07-28T08:24:49.810Z,2.4
2022-07-28T08:26:50.119Z,2.5
2022-07-28T08:28:50.390Z,2.5
2022-07-28T08:30:50.545Z,2.4
2022-07-28T08:32:57.408Z,2.4
2022-07-28T08:34:49.822Z,2.6
2022-07-28T08:36:50.379Z,2.7
2022-07-28T08:38:50.238Z,3.1
2022-07-28T08:40:50.245Z,3.1
2022-07-28T08:42:49.977Z,2.8
2022-07-28T08:44:49.831Z,2.7
2022-07-28T08:46:50.458Z,2.9
2022-07-28T08:48:50.096Z,2.7
2022-07-28T08:50:50.359Z,3.0
2022-07-28T08:52:50.549Z,3.0
2022-07-28T08:54:50.228Z,2.9
2022-07-28T08:56:50.394Z,2.7
2022-07-28T08:58:50.334Z,2.7
2022-07-28T09:00:50.362Z,3.0
2022-07-28T09:02:52.586Z,2.7
2022-07-28T09:04:49.755Z,3.0
2022-07-28T09:06:49.877Z,2.6
2022-07-28T09:08:50.627Z,2.8
2022-07-28T09:10:50.633Z,2.8
2022-07-28T09:12:49.755Z,2.9
2022-07-28T09:14:50.627Z,2.6
2022-07-28T09:16:49.781Z,2.8
2022-07-28T09:18:49.676Z,2.8
2022-07-28T09:20:50.491Z,2.7
2022-07-28T09:22:50.449Z,2.6
2022-07-28T09:24:50.425Z,2.6
2022-07-28T09:26:50.323Z,2.9
2022-07-28T09:28:50.198Z,2.4
2022-07-28T09:30:54.687Z,2.4
2022-07-28T09:32:50.070Z,2.5
2022-07-28T09:34:52.090Z,3.1
2022-07-28T09:36:50.317Z,3.1
2022-07-28T09:38:50.145Z,2.4
2022-07-28T09:40:50.185Z,2.4
2022-07-28T09:42:49.974Z,2.5
2022-07-28T09:45:20.510Z,2.4
2022-07-28T09:46:50.556Z,2.4
2022-07-28T09:48:50.698Z,2.6
2022-07-28T09:50:50.218Z,2.6
2022-07-28T09:52:50.234Z,2.5
2022-07-28T09:54:50.229Z,2.4
2022-07-28T09:56:49.766Z,2.1
2022-07-28T09:58:49.806Z,2.1
2022-07-28T10:00:49.774Z,2.4
2022-07-28T10:02:50.677Z,2.7
2022-07-28T10:04:50.487Z,2.3
2022-07-28T10:06:49.686Z,2.5
2022-07-28T10:08:50.609Z,2.5
2022-07-28T10:10:50.614Z,2.2
2022-07-28T10:12:50.670Z,2.6
2022-07-28T10:14:49.940Z,2.4
2022-07-28T10:16:50.160Z,2.4
2022-07-28T10:18:50.108Z,2.4
2022-07-28T10:20:50.146Z,2.4
2022-07-28T10:22:49.843Z,2.4
2022-07-28T10:24:50.573Z,2.2
2022-07-28T10:26:49.994Z,2.4
2022-07-28T10:28:49.989Z,2.4
2022-07-28T10:30:49.926Z,2.2
2022-07-28T10:32:50.112Z,2.5
2022-07-28T10:34:50.406Z,2.1
2022-07-28T10:36:50.578Z,2.2
2022-07-28T10:38:50.578Z,2.2
2022-07-28T10:40:49.711Z,2.3
2022-07-28T10:42:50.557Z,2.5
2022-07-28T10:44:50.346Z,2.8
2022-07-28T10:46:49.965Z,2.5
2022-07-28T10:48:50.417Z,2.5
2022-07-28T10:50:50.120Z,2.6
2022-07-28T10:52:57.439Z,2.6
2022-07-28T10:54:50.286Z,2.6
2022-07-28T10:56:50.360Z,2.6
2022-07-28T10:58:50.454Z,2.8
2022-07-28T11:01:01.948Z,2.6
2022-07-28T11:02:51.172Z,3.0
2022-07-28T11:04:50.552Z,2.8
2022-07-28T11:06:49.770Z,2.8
2022-07-28T11:08:50.657Z,2.6
2022-07-28T11:10:50.399Z,2.7
2022-07-28T11:12:50.332Z,2.7
2022-07-28T11:14:50.138Z,3.1
2022-07-28T11:16:50.398Z,3.1
2022-07-28T11:18:50.421Z,2.7
2022-07-28T11:20:50.427Z,2.9
2022-07-28T11:22:50.398Z,2.9
2022-07-28T11:24:50.648Z,2.9
2022-07-28T11:26:49.900Z,2.9
2022-07-28T11:28:49.961Z,2.9
2022-07-28T11:30:49.885Z,2.7
2022-07-28T11:32:50.228Z,2.7
2022-07-28T11:34:50.492Z,2.7
2022-07-28T11:36:49.778Z,3.0
2022-07-28T11:38:50.548Z,2.8
2022-07-28T11:40:50.563Z,2.7
2022-07-28T11:42:49.701Z,2.6
2022-07-28T11:44:50.026Z,2.6
2022-07-28T11:46:53.431Z,2.7
2022-07-28T11:48:50.617Z,2.8
2022-07-28T11:50:49.905Z,2.6
2022-07-28T11:52:49.825Z,2.5
2022-07-28T11:54:50.674Z,2.5
2022-07-28T11:56:50.026Z,2.9
2022-07-28T11:58:49.962Z,2.6
2022-07-28T12:00:50.194Z,2.6
2022-07-28T12:02:50.268Z,2.8
2022-07-28T12:04:50.162Z,2.8
2022-07-28T12:06:51.743Z,2.7
2022-07-28T12:08:49.906Z,2.6
2022-07-28T12:10:56.013Z,2.5
2022-07-28T12:12:49.900Z,2.7
2022-07-28T12:14:49.766Z,2.7
2022-07-28T12:16:50.243Z,2.8
2022-07-28T12:18:50.387Z,2.8
2022-07-28T12:20:50.368Z,2.7
2022-07-28T12:22:50.930Z,2.7
2022-07-28T12:24:49.944Z,2.7
2022-07-28T12:26:50.769Z,2.4
2022-07-28T12:28:49.726Z,2.7
2022-07-28T12:30:50.654Z,2.7
2022-07-28T12:32:50.553Z,2.7
2022-07-28T12:34:49.988Z,2.2
2022-07-28T12:36:50.155Z,2.4
2022-07-28T12:38:50.101Z,2.6
2022-07-28T12:40:49.972Z,2.6
2022-07-28T12:42:53.883Z,2.3
2022-07-28T12:44:49.858Z,2.4
2022-07-28T12:46:50.048Z,2.6
2022-07-28T12:48:50.028Z,2.6
2022-07-28T12:50:50.392Z,2.5
2022-07-28T12:52:50.446Z,2.5
2022-07-28T12:54:56.339Z,2.6
2022-07-28T12:56:50.061Z,2.2
2022-07-28T12:58:49.961Z,2.4
2022-07-28T13:00:49.998Z,2.4
2022-07-28T13:02:50.431Z,2.6
2022-07-28T13:04:49.998Z,2.4
2022-07-28T13:06:50.223Z,2.4
2022-07-28T13:08:50.198Z,2.4
2022-07-28T13:10:56.914Z,2.3
2022-07-28T13:12:50.079Z,2.3
2022-07-28T13:14:50.063Z,2.2
2022-07-28T13:16:50.563Z,2.5
2022-07-28T13:18:50.524Z,2.5
2022-07-28T13:20:50.473Z,2.5
2022-07-28T13:22:50.358Z,2.4
2022-07-28T13:24:50.286Z,2.4
2022-07-28T13:26:50.650Z,2.8
2022-07-28T13:28:49.855Z,2.8
2022-07-28T13:30:49.777Z,2.4
2022-07-28T13:32:50.038Z,2.4
2022-07-28T13:34:49.691Z,2.3
2022-07-28T13:36:50.117Z,2.5
2022-07-28T13:38:49.960Z,2.5
2022-07-28T13:40:49.842Z,2.5
2022-07-28T13:42:57.078Z,2.4
2022-07-28T13:44:49.992Z,2.4
2022-07-28T13:46:50.418Z,2.2
2022-07-28T13:49:00.410Z,2.2
2022-07-28T13:50:49.718Z,2.4
2022-07-28T13:52:51.676Z,2.5
2022-07-28T13:54:51.351Z,2.3
2022-07-28T13:56:50.483Z,2.5
2022-07-28T13:58:51.745Z,2.5
2022-07-28T14:00:50.025Z,2.3
2022-07-28T14:02:50.301Z,2.3
2022-07-28T14:04:50.871Z,2.1
2022-07-28T14:06:50.436Z,2.1
2022-07-28T14:08:52.954Z,2.2
2022-07-28T14:10:49.990Z,2.2
2022-07-28T14:12:51.387Z,2.6
2022-07-28T14:14:50.301Z,2.3
2022-07-28T14:16:49.919Z,2.3
2022-07-28T14:18:50.126Z,2.4
2022-07-28T14:20:50.340Z,2.4
2022-07-28T14:22:50.143Z,2.2
2022-07-28T14:24:49.940Z,2.2
2022-07-28T14:26:50.098Z,2.0
2022-07-28T14:28:49.837Z,2.0
2022-07-28T14:30:49.786Z,2.1
2022-07-28T14:32:50.485Z,2.4
2022-07-28T14:34:50.457Z,2.2
2022-07-28T14:36:50.909Z,2.2
2022-07-28T14:38:54.696Z,2.2
2022-07-28T14:40:49.729Z,2.3
2022-07-28T14:42:50.617Z,2.4
2022-07-28T14:44:50.524Z,2.3
2022-07-28T14:46:50.772Z,2.3
2022-07-28T14:48:50.199Z,2.1
2022-07-28T14:50:50.271Z,2.2
2022-07-28T14:52:50.227Z,2.9
2022-07-28T14:54:50.162Z,2.1
2022-07-28T14:56:49.725Z,2.1
2022-07-28T14:58:50.409Z,2.3
2022-07-28T15:00:50.319Z,2.1
2022-07-28T15:02:50.293Z,2.2
2022-07-28T15:04:50.365Z,2.2
2022-07-28T15:06:50.360Z,2.1
2022-07-28T15:08:50.372Z,2.4
2022-07-28T15:10:50.132Z,2.1
2022-07-28T15:12:50.240Z,2.3
2022-07-28T15:14:50.144Z,2.1
2022-07-28T15:16:50.441Z,2.1
2022-07-28T15:18:50.453Z,2.2
2022-07-28T15:20:50.499Z,2.2
2022-07-28T15:22:50.662Z,2.2
2022-07-28T15:24:50.426Z,2.0
2022-07-28T15:26:49.693Z,2.0
2022-07-28T15:28:50.496Z,1.8
2022-07-28T15:30:50.553Z,2.1
2022-07-28T15:32:57.442Z,2.1
2022-07-28T15:34:50.549Z,1.9
2022-07-28T15:36:49.855Z,1.9
2022-07-28T15:38:51.163Z,2.1
2022-07-28T15:40:53.038Z,2.0
2022-07-28T15:42:49.850Z,2.0
2022-07-28T15:44:49.801Z,2.0
2022-07-28T15:46:50.766Z,2.2
2022-07-28T15:48:50.372Z,2.2
2022-07-28T15:50:50.428Z,2.6
2022-07-28T15:52:50.346Z,2.2
2022-07-28T15:54:50.271Z,2.2
2022-07-28T15:56:50.306Z,3.0
2022-07-28T15:58:50.299Z,2.5
2022-07-28T16:00:50.238Z,2.0
2022-07-28T16:02:50.336Z,2.2
2022-07-28T16:04:54.496Z,2.2
2022-07-28T16:06:49.993Z,2.3
2022-07-28T16:08:49.988Z,2.2
2022-07-28T16:10:49.873Z,2.3
2022-07-28T16:12:49.941Z,2.3
2022-07-28T16:14:49.715Z,2.3
2022-07-28T16:16:49.902Z,2.4
2022-07-28T16:18:49.857Z,2.4
2022-07-28T16:20:49.721Z,2.0
2022-07-28T16:22:50.657Z,2.0
2022-07-28T16:24:50.525Z,2.0
2022-07-28T16:26:49.980Z,2.0
2022-07-28T16:28:49.927Z,2.1
2022-07-28T16:30:49.985Z,2.0
2022-07-28T16:32:49.991Z,2.1
2022-07-28T16:34:50.516Z,2.1
2022-07-28T16:36:49.842Z,2.1
2022-07-28T16:38:49.727Z,2.0
2022-07-28T16:40:50.569Z,1.9
2022-07-28T16:42:50.438Z,2.1
2022-07-28T16:44:50.163Z,2.1
2022-07-28T16:46:50.426Z,2.1
2022-07-28T16:48:50.626Z,1.7
2022-07-28T16:50:50.016Z,1.9
2022-07-28T16:52:50.078Z,2.1
2022-07-28T16:54:49.961Z,2.1
2022-07-28T16:56:50.288Z,2.0
2022-07-28T16:58:50.208Z,1.8
2022-07-28T17:00:50.143Z,2.2
2022-07-28T17:02:50.068Z,2.2
2022-07-28T17:04:50.663Z,2.2
2022-07-28T17:06:50.182Z,2.0
2022-07-28T17:08:50.150Z,2.0
2022-07-28T17:10:50.262Z,1.9
2022-07-28T17:12:50.580Z,1.9
2022-07-28T17:14:49.694Z,1.9
2022-07-28T17:16:49.866Z,2.0
2022-07-28T17:18:49.816Z,2.1
2022-07-28T17:20:49.759Z,1.8
2022-07-28T17:22:49.688Z,1.8
2022-07-28T17:24:50.674Z,1.8
2022-07-28T17:28:50.535Z,2.1
2022-07-28T17:30:50.339Z,2.1
2022-07-28T17:32:50.268Z,2.1
2022-07-28T17:34:50.568Z,2.1
2022-07-28T17:36:49.796Z,2.1
2022-07-28T17:38:50.675Z,2.0
2022-07-28T17:40:50.492Z,2.3
2022-07-28T17:42:50.409Z,2.3
2022-07-28T17:44:50.218Z,2.1
2022-07-28T17:46:50.759Z,2.2
2022-07-28T17:48:50.331Z,2.2
2022-07-28T17:50:50.608Z,2.2
2022-07-28T17:52:50.502Z,2.0
2022-07-28T17:54:50.486Z,2.3
2022-07-28T17:56:49.901Z,2.3
2022-07-28T17:58:50.306Z,2.4
2022-07-28T18:00:50.254Z,2.4
2022-07-28T18:02:50.216Z,2.4
2022-07-28T18:04:49.875Z,2.3
2022-07-28T18:06:50.082Z,2.2
2022-07-28T18:08:50.234Z,2.1
2022-07-28T18:10:50.231Z,2.1
2022-07-28T18:12:50.177Z,2.2
2022-07-28T18:14:50.074Z,2.2
2022-07-28T18:16:50.022Z,2.2
2022-07-28T18:18:49.939Z,2.2
2022-07-28T18:20:49.675Z,2.7
2022-07-28T18:22:49.782Z,2.5
2022-07-28T18:24:50.545Z,2.3
2022-07-28T18:26:49.937Z,2.2
2022-07-28T18:28:49.845Z,2.2
2022-07-28T18:30:50.094Z,2.4
2022-07-28T18:32:50.118Z,2.5
2022-07-28T18:34:50.640Z,2.4
2022-07-28T18:36:51.012Z,2.4
2022-07-28T18:38:50.070Z,2.4
2022-07-28T18:40:53.055Z,2.3
2022-07-28T18:42:50.035Z,2.2
2022-07-28T18:44:50.041Z,2.2
2022-07-28T18:46:50.786Z,2.2
2022-07-28T18:48:57.275Z,2.2
2022-07-28T18:50:50.495Z,2.3
2022-07-28T18:52:50.513Z,2.3
2022-07-28T18:54:50.578Z,2.3
2022-07-28T18:56:49.753Z,2.4
2022-07-28T18:58:49.656Z,2.4
2022-07-28T19:00:50.586Z,2.2
2022-07-28T19:02:50.735Z,2.5
2022-07-28T19:04:49.833Z,2.3
2022-07-28T19:06:50.250Z,2.4
2022-07-28T19:08:50.028Z,2.4
2022-07-28T19:10:49.858Z,2.5
2022-07-28T19:12:49.879Z,2.3
2022-07-28T19:14:49.827Z,2.3
2022-07-28T19:16:49.888Z,2.7
2022-07-28T19:18:49.837Z,2.7
2022-07-28T19:20:49.792Z,2.6
2022-07-28T19:22:49.758Z,2.6
2022-07-28T19:24:49.714Z,2.6
2022-07-28T19:26:49.806Z,2.6
2022-07-28T19:28:50.545Z,2.4
2022-07-28T19:30:50.769Z,2.3
2022-07-28T19:32:50.009Z,2.3
2022-07-28T19:34:51.351Z,2.7
2022-07-28T19:36:50.663Z,2.7
2022-07-28T19:38:49.704Z,2.5
2022-07-28T19:40:50.560Z,2.6
2022-07-28T19:42:50.562Z,2.6
2022-07-28T19:44:56.114Z,2.5
2022-07-28T19:46:50.486Z,2.5
2022-07-28T19:48:50.443Z,2.9
2022-07-28T19:50:51.395Z,2.7
2022-07-28T19:52:50.391Z,2.5
2022-07-28T19:54:51.579Z,2.5
2022-07-28T19:56:49.888Z,2.5
2022-07-28T19:58:49.721Z,2.5
2022-07-28T20:00:49.753Z,2.6
2022-07-28T20:02:49.956Z,2.8
2022-07-28T20:04:50.551Z,2.8
2022-07-28T20:06:55.791Z,2.7
2022-07-28T20:08:49.732Z,2.6
2022-07-28T20:10:49.894Z,2.8
2022-07-28T20:12:50.656Z,3.3
2022-07-28T20:14:49.688Z,3.3
2022-07-28T20:16:50.337Z,2.9
2022-07-28T20:18:50.460Z,2.8
2022-07-28T20:20:50.362Z,2.5
2022-07-28T20:22:50.297Z,2.7
2022-07-28T20:24:50.237Z,2.7
2022-07-28T20:26:50.664Z,2.7
2022-07-28T20:28:50.641Z,2.5
2022-07-28T20:30:50.616Z,2.6
2022-07-28T20:32:49.780Z,2.5
2022-07-28T20:34:50.281Z,2.5
2022-07-28T20:36:50.494Z,2.5
2022-07-28T20:38:50.294Z,2.6
2022-07-28T20:40:50.283Z,2.5
2022-07-28T20:42:53.564Z,2.5
2022-07-28T20:44:50.394Z,2.6
2022-07-28T20:46:50.556Z,2.5
2022-07-28T20:48:50.643Z,2.8
2022-07-28T20:50:49.694Z,2.8
2022-07-28T20:52:49.689Z,2.7
2022-07-28T20:54:55.031Z,2.7
2022-07-28T20:56:50.555Z,2.4
2022-07-28T20:58:50.623Z,2.5
2022-07-28T21:00:50.629Z,2.5
2022-07-28T21:02:50.150Z,2.4
2022-07-28T21:04:50.933Z,2.6
2022-07-28T21:06:54.363Z,2.2
2022-07-28T21:08:51.694Z,2.2
2022-07-28T21:10:49.795Z,2.3
2022-07-28T21:12:49.904Z,2.3
2022-07-28T21:14:49.945Z,2.3
2022-07-28T21:16:50.377Z,2.1
2022-07-28T21:18:50.537Z,2.3
2022-07-28T21:20:50.387Z,2.2
2022-07-28T21:22:50.317Z,2.2
2022-07-28T21:24:55.719Z,1.9
2022-07-28T21:26:50.420Z,2.0
2022-07-28T21:28:50.387Z,2.2
2022-07-28T21:30:50.405Z,2.4
2022-07-28T21:32:50.402Z,2.4
2022-07-28T21:34:49.951Z,2.2
2022-07-28T21:36:50.133Z,2.2
2022-07-28T21:38:50.170Z,2.1
2022-07-28T21:40:50.005Z,2.1
2022-07-28T21:42:49.983Z,2.1
2022-07-28T21:44:50.101Z,2.1
2022-07-28T21:46:50.436Z,2.2
2022-07-28T21:48:50.531Z,2.4
2022-07-28T21:50:49.761Z,2.1
2022-07-28T21:52:49.833Z,2.1
2022-07-28T21:54:49.815Z,2.3
2022-07-28T21:56:49.887Z,2.5
2022-07-28T21:58:49.940Z,2.6
2022-07-28T22:00:50.039Z,2.6
2022-07-28T22:02:51.348Z,2.6
2022-07-28T22:04:50.391Z,2.2
2022-07-28T22:06:50.098Z,2.6
2022-07-28T22:08:50.096Z,2.5
2022-07-28T22:10:50.310Z,2.5
2022-07-28T22:12:50.352Z,2.8
2022-07-28T22:14:50.560Z,2.2
2022-07-28T22:16:50.051Z,2.1
2022-07-28T22:18:50.328Z,2.2
2022-07-28T22:20:50.358Z,2.2
2022-07-28T22:22:50.183Z,2.1
2022-07-28T22:24:50.211Z,2.4
2022-07-28T22:26:50.260Z,2.4
2022-07-28T22:28:50.512Z,2.2
2022-07-28T22:30:50.353Z,2.2
2022-07-28T22:32:50.220Z,2.4
2022-07-28T22:34:50.469Z,2.4
2022-07-28T22:36:49.911Z,2.3
2022-07-28T22:38:49.867Z,2.3
2022-07-28T22:40:49.676Z,2.3
2022-07-28T22:42:50.555Z,2.1
2022-07-28T22:44:50.455Z,2.2
2022-07-28T22:46:49.812Z,2.2
2022-07-28T22:48:49.918Z,2.4
2022-07-28T22:50:49.977Z,2.3
2022-07-28T22:52:49.858Z,2.3
2022-07-28T22:54:50.194Z,2.3
2022-07-28T22:56:50.253Z,2.3
2022-07-28T22:58:50.169Z,2.3
2022-07-28T23:00:51.929Z,2.4
2022-07-28T23:02:50.200Z,2.2
2022-07-28T23:04:52.137Z,2.2
2022-07-28T23:06:50.358Z,2.4
2022-07-28T23:08:50.335Z,2.4
2022-07-28T23:10:50.297Z,2.2
2022-07-28T23:12:50.172Z,2.1
2022-07-28T23:14:50.021Z,2.5
2022-07-28T23:16:50.766Z,2.5
2022-07-28T23:18:49.725Z,2.5
2022-07-28T23:20:49.735Z,2.3
2022-07-28T23:22:50.572Z,2.2
2022-07-28T23:24:50.508Z,2.2
2022-07-28T23:26:50.639Z,2.2
2022-07-28T23:28:49.712Z,2.2
2022-07-28T23:30:52.257Z,1.9
2022-07-28T23:32:50.146Z,2.3
2022-07-28T23:34:50.523Z,2.4
2022-07-28T23:36:49.754Z,2.3
2022-07-28T23:38:49.727Z,2.3
2022-07-28T23:40:50.592Z,2.1
2022-07-28T23:42:50.589Z,2.2
2022-07-28T23:44:50.387Z,2.2
2022-07-28T23:46:50.704Z,2.2
2022-07-28T23:48:49.972Z,2.2
2022-07-28T23:50:50.214Z,2.4
2022-07-28T23:52:50.327Z,2.2
2022-07-28T23:54:50.189Z,2.2
2022-07-28T23:56:50.204Z,1.9
2022-07-28T23:58:50.042Z,2.2
